KCOSKLIC

Guest
Details From KCOS - Colorado Springs Municipal
To KLIC - LIMON MUNI
Flight Number -
Tags generated
Created
Modified
Stats Distance 56 nm / 104 km
Max Altitude 3,500 ft / 1,067 m
Waypoints 3
Social Downloads 3
Likes 0
Share VATSIM

Download

Looking for another format? Having issues loading an existing format? Contact us
Advertisement - Login to hide

Notes

Basic altitude profile: - Ascent Rate: 2500ft/min - Ascent Speed: 250kts - Cruise Altitude: 35000ft - Cruise Speed: 420kts - Descent Rate: 1500ft/min - Descent Speed: 250kts Options: - Use NATs: yes - Use PACOTS: yes - Use low airways: yes - Use high airways: yes

Route

KCOS CONAL KLIC

ID Type Via Altitude Latitude Longitude Leg Dist Tot Dist Heading (true) Name
O KCOS APT - 0 ft / 0 m 38.80721˚ -104.70226˚ - 0 nm - Colorado Springs Municipal
CONAL FIX - 3,500 ft / 1,067 m 39.12259˚ -103.96690˚ 39 nm 39 nm 61° / 61° -
O KLIC APT - 0 ft / 0 m 39.27479˚ -103.66587˚ 16 nm 55 nm 57° / 57° LIMON MUNI

Altitude Profile

Advertisement - Login to hide

KCOS

Details ICAO KCOS (COS)
Name Colorado Springs Municipal
Region United States
Timezone America/Denver (UTC-6.0)
Stats Elevation 6,187 ft / 1,886 m (AMSL)
Location 38.807209° -104.702264°
Runways 3
Magnetic Variation 7.944° E

METAR

KCOS 210254Z 00000KT 10SM SCT120 BKN160 BKN250 12/07 A3020 RMK AO2 SLP203 60000 T01170072 55004 $

Decode

TAF

KCOS 202320Z 2100/2124 15010KT P6SM VCSH BKN035 OVC050 FM210300 VRB06KT P6SM VCSH OVC050 FM210600 VRB06KT P6SM SCT200 FM211500 18006KT P6SM SCT250 FM212300 16013KT P6SM VCTS BKN050CB

Decode

Departure Runways

ID Width Length Bearing (true) Bearing (mag) Surface Threshold Offset Overrun Length
13 150 ft / 46 m 8,266 ft / 2,519 m 135.20° 127.26° Asphalt 0 ft / 0 m 0 ft / 0 m
17L 150 ft / 46 m 13,523 ft / 4,122 m 180.08° 172.14° Concrete 0 ft / 0 m 400 ft / 122 m
17R 150 ft / 46 m 11,040 ft / 3,365 m 180.05° 172.11° Asphalt 0 ft / 0 m 1,000 ft / 305 m
31 150 ft / 46 m 8,266 ft / 2,519 m 315.22° 307.28° Asphalt 355 ft / 108 m 200 ft / 61 m
35L 150 ft / 46 m 11,040 ft / 3,365 m 0.05° 352.11° Asphalt 0 ft / 0 m 1,000 ft / 305 m
35R 150 ft / 46 m 13,523 ft / 4,122 m 0.08° 352.14° Concrete 0 ft / 0 m 400 ft / 122 m

KLIC

Details ICAO KLIC
Name LIMON MUNI
Region United States
Timezone America/Denver (UTC-6.0)
Stats Elevation 5,374 ft / 1,638 m (AMSL)
Location 39.274788° -103.665874°
Runways 1
Magnetic Variation 7.430° E

METAR

KLIC 210255Z AUTO 11008KT 10SM SCT050 12/06 A3016 RMK AO2 SLP183 T01170061 53001

Decode

TAF

Not found

Destination Runways

ID Width Length Bearing (true) Bearing (mag) Surface Threshold Offset Overrun Length
16 60 ft / 18 m 4,706 ft / 1,435 m 169.64° 162.21° Concrete 0 ft / 0 m 0 ft / 0 m
34 60 ft / 18 m 4,706 ft / 1,435 m 349.64° 342.21° Concrete 0 ft / 0 m 0 ft / 0 m